Time;durP1;ratioP1;P1;durP2;ratioP2;P2;SDS_P1;SDS_P2;PMS_P1;PMS_P2;Temp;Humidity;BMP_temperature;BMP_pressure;BME280_temperature;BME280_humidity;BME280_pressure;Samples;Min_cycle;Max_cycle;Signal;HPM_P1;HPM_P2
2022/10/19 00:01:06;;;;;;;5.00;3.17;;;19.30;96.70;;;;;;5023529;28;20052;-72
2022/10/19 00:03:35;;;;;;;4.05;3.20;;;19.30;96.70;;;;;;5028251;28;20514;-72
2022/10/19 00:06:13;;;;;;;5.00;3.22;;;19.40;96.70;;;;;;5023671;28;20045;-72
2022/10/19 00:08:41;;;;;;;4.60;3.30;;;19.50;96.70;;;;;;5016189;28;20047;-72
2022/10/19 00:11:09;;;;;;;6.05;3.50;;;19.50;96.70;;;;;;5023653;28;20044;-71
2022/10/19 00:13:38;;;;;;;5.20;3.53;;;19.40;96.70;;;;;;5005862;28;20384;-71
2022/10/19 00:16:09;;;;;;;4.72;3.55;;;19.30;96.70;;;;;;5029584;28;20092;-72
2022/10/19 00:18:38;;;;;;;3.95;3.20;;;19.30;96.70;;;;;;5003771;28;20470;-72
2022/10/19 00:21:09;;;;;;;5.10;3.50;;;19.30;96.70;;;;;;5023650;28;20037;-72
2022/10/19 00:23:38;;;;;;;6.05;3.80;;;19.20;96.70;;;;;;5028133;28;20053;-71
2022/10/19 00:26:07;;;;;;;5.40;3.55;;;19.20;96.70;;;;;;5025267;28;20404;-72
2022/10/19 00:28:35;;;;;;;6.22;3.88;;;19.20;96.70;;;;;;5029099;28;20049;-71
2022/10/19 00:31:03;;;;;;;6.97;4.30;;;19.10;96.70;;;;;;5028669;28;20049;-71
2022/10/19 00:33:32;;;;;;;9.88;5.00;;;19.10;96.70;;;;;;5005269;28;20045;-71
2022/10/19 00:36:00;;;;;;;6.90;4.22;;;19.10;96.70;;;;;;5013966;28;20049;-71
2022/10/19 00:38:28;;;;;;;9.63;5.43;;;19.10;96.70;;;;;;5029409;28;20132;-71
2022/10/19 00:40:57;;;;;;;12.88;6.80;;;19.00;96.70;;;;;;5003826;28;20037;-71
2022/10/19 00:43:31;;;;;;;8.07;5.25;;;19.10;96.70;;;;;;5023582;28;20152;-71
2022/10/19 00:45:59;;;;;;;8.07;5.35;;;19.00;96.70;;;;;;5014217;28;20565;-72
2022/10/19 00:48:30;;;;;;;6.80;5.47;;;19.00;96.70;;;;;;5010596;28;20047;-72
2022/10/19 00:50:59;;;;;;;9.70;5.15;;;19.00;96.70;;;;;;5008183;28;20475;-72
2022/10/19 00:53:29;;;;;;;6.45;4.90;;;19.00;96.70;;;;;;5029319;28;20055;-72
2022/10/19 00:56:02;;;;;;;6.20;4.85;;;19.00;96.70;;;;;;5026098;28;20059;-72
2022/10/19 00:58:31;;;;;;;7.70;5.93;;;19.00;96.70;;;;;;5023200;28;20055;-71
2022/10/19 01:01:03;;;;;;;6.22;5.18;;;18.80;96.70;;;;;;5025532;28;20052;-71
2022/10/19 01:03:32;;;;;;;7.90;6.05;;;18.80;96.70;;;;;;5031251;28;20486;-71
2022/10/19 01:06:00;;;;;;;7.18;6.00;;;18.90;96.70;;;;;;5024747;28;20490;-71
2022/10/19 01:08:29;;;;;;;9.52;6.47;;;19.00;96.70;;;;;;5020887;28;20048;-72
2022/10/19 01:11:13;;;;;;;8.10;5.78;;;19.10;96.70;;;;;;5015918;28;20049;-71
2022/10/19 01:13:50;;;;;;;8.75;5.70;;;19.20;96.70;;;;;;5004994;28;20659;-71
2022/10/19 01:16:22;;;;;;;6.78;6.07;;;19.20;96.70;;;;;;5009852;28;20050;-72
2022/10/19 01:18:57;;;;;;;9.77;6.57;;;19.30;96.70;;;;;;5006513;28;20133;-71
2022/10/19 01:21:28;;;;;;;9.88;7.05;;;19.10;96.70;;;;;;5031019;28;20387;-71
2022/10/19 01:24:31;;;;;;;11.93;8.10;;;19.10;96.70;;;;;;5027500;28;20044;-71
2022/10/19 01:27:32;;;;;;;9.63;6.90;;;19.20;96.70;;;;;;4991597;28;20092;-71
2022/10/19 01:30:16;;;;;;;9.25;6.53;;;19.30;96.70;;;;;;5016966;28;20521;-71
2022/10/19 01:33:02;;;;;;;9.32;7.13;;;19.30;96.70;;;;;;5013365;28;20049;-71
2022/10/19 01:35:37;;;;;;;7.13;6.40;;;19.20;96.70;;;;;;5007138;28;20049;-72
2022/10/19 01:38:22;;;;;;;7.75;6.18;;;19.10;96.70;;;;;;5012016;28;20041;-71
2022/10/19 01:40:56;;;;;;;9.15;6.13;;;19.20;96.70;;;;;;5019075;28;20041;-71
2022/10/19 01:43:32;;;;;;;12.77;7.15;;;19.10;96.70;;;;;;5028261;28;20132;-72
2022/10/19 01:46:09;;;;;;;8.95;7.55;;;19.20;96.70;;;;;;5011609;28;20619;-71
2022/10/19 01:48:38;;;;;;;;;;;19.10;96.70;;;;;;5024241;28;20053;-71
2022/10/19 01:51:09;;;;;;;9.23;8.00;;;19.20;96.70;;;;;;5002101;28;20370;-71
2022/10/19 01:53:41;;;;;;;9.65;7.88;;;19.20;96.70;;;;;;5023741;28;20438;-72
2022/10/19 01:56:11;;;;;;;11.07;8.20;;;19.10;96.70;;;;;;5025533;28;20040;-71
2022/10/19 01:58:43;;;;;;;8.95;7.53;;;19.10;96.70;;;;;;5026962;28;20152;-71
2022/10/19 02:01:16;;;;;;;11.82;8.55;;;19.20;96.70;;;;;;5027675;28;20136;-71
2022/10/19 02:03:49;;;;;;;11.70;8.68;;;19.20;96.70;;;;;;5016497;28;20045;-71
2022/10/19 02:06:18;;;;;;;14.95;9.77;;;19.20;96.70;;;;;;5033844;28;20957;-71
2022/10/19 02:08:49;;;;;;;13.60;9.82;;;19.20;96.70;;;;;;5027078;28;20132;-72
2022/10/19 02:11:19;;;;;;;13.20;9.50;;;19.10;96.70;;;;;;5030818;28;20124;-71
2022/10/19 02:13:52;;;;;;;16.27;9.70;;;19.10;96.70;;;;;;5029546;28;20483;-71
2022/10/19 02:16:26;;;;;;;15.20;10.50;;;19.10;96.70;;;;;;5006430;28;20081;-72
2022/10/19 02:18:56;;;;;;;14.52;9.73;;;19.00;96.70;;;;;;5008111;28;20052;-71
2022/10/19 02:21:26;;;;;;;15.15;9.88;;;19.00;96.70;;;;;;5024183;28;20041;-72
2022/10/19 02:23:54;;;;;;;18.98;10.45;;;19.10;96.70;;;;;;5026752;28;20041;-71
2022/10/19 02:26:22;;;;;;;14.52;10.18;;;19.20;96.70;;;;;;4996725;28;20411;-72
2022/10/19 02:28:52;;;;;;;16.27;9.98;;;19.20;96.70;;;;;;5011427;28;20054;-72
2022/10/19 02:31:22;;;;;;;16.70;9.70;;;19.20;96.70;;;;;;5008541;28;20041;-71
2022/10/19 02:33:50;;;;;;;13.85;9.25;;;19.20;96.70;;;;;;5027927;28;20041;-72
2022/10/19 02:36:19;;;;;;;16.33;9.60;;;19.10;96.70;;;;;;5030742;28;20061;-72
2022/10/19 02:38:47;;;;;;;14.93;9.60;;;19.10;96.70;;;;;;5016872;28;20504;-71
2022/10/19 02:41:18;;;;;;;16.65;9.88;;;19.10;96.70;;;;;;5012095;28;20052;-71
2022/10/19 02:43:51;;;;;;;14.55;9.10;;;19.10;96.70;;;;;;5024985;28;20057;-71
2022/10/19 02:46:26;;;;;;;16.48;10.27;;;19.10;96.70;;;;;;5030694;28;20053;-72
2022/10/19 02:48:55;;;;;;;14.85;9.20;;;19.00;96.70;;;;;;5002200;28;20077;-71
2022/10/19 02:51:28;;;;;;;13.63;10.10;;;19.00;96.70;;;;;;5023542;28;20049;-71
2022/10/19 02:53:56;;;;;;;15.48;9.35;;;19.00;96.70;;;;;;5023448;28;20045;-72
2022/10/19 02:56:28;;;;;;;18.15;10.07;;;18.90;96.70;;;;;;5026343;28;20553;-72
2022/10/19 02:58:56;;;;;;;15.02;10.05;;;18.90;96.70;;;;;;5022110;28;20041;-71
2022/10/19 03:01:25;;;;;;;14.57;9.23;;;18.80;96.70;;;;;;5014677;28;20309;-71
2022/10/19 03:03:53;;;;;;;14.32;9.02;;;18.80;96.70;;;;;;5031203;28;20034;-72
2022/10/19 03:06:21;;;;;;;13.18;8.70;;;18.90;96.70;;;;;;5029299;28;20049;-71
2022/10/19 03:08:48;;;;;;;15.95;9.25;;;18.90;96.70;;;;;;5010706;28;20072;-72
2022/10/19 03:11:17;;;;;;;14.88;9.23;;;18.90;96.70;;;;;;5026722;28;20096;-72
2022/10/19 03:13:44;;;;;;;15.00;9.20;;;18.90;96.70;;;;;;5031359;28;20048;-72
2022/10/19 03:16:17;;;;;;;16.08;10.07;;;18.90;96.70;;;;;;5007127;28;20057;-72
2022/10/19 03:18:47;;;;;;;15.07;10.02;;;18.90;96.70;;;;;;5028353;28;20495;-72
2022/10/19 03:21:15;;;;;;;14.43;9.35;;;18.90;96.70;;;;;;5027157;28;20133;-71
2022/10/19 03:23:43;;;;;;;16.25;10.55;;;19.00;96.70;;;;;;5026695;28;20128;-72
2022/10/19 03:26:14;;;;;;;13.32;10.13;;;19.10;96.70;;;;;;5030073;28;20533;-72
2022/10/19 03:28:42;;;;;;;16.50;11.23;;;19.10;96.70;;;;;;5026235;28;20063;-71
2022/10/19 03:31:10;;;;;;;14.07;11.25;;;19.10;96.70;;;;;;5024431;28;20113;-72
2022/10/19 03:33:38;;;;;;;9.55;8.43;;;19.00;96.70;;;;;;5029519;28;20383;-73
2022/10/19 03:36:20;;;;;;;13.27;8.50;;;18.90;96.70;;;;;;5024655;28;20652;-72
2022/10/19 03:38:53;;;;;;;11.27;9.10;;;18.90;96.70;;;;;;5025971;28;20602;-73
2022/10/19 03:41:21;;;;;;;12.27;8.38;;;18.80;96.70;;;;;;5032287;28;20043;-73
2022/10/19 03:43:49;;;;;;;11.43;8.45;;;18.80;96.70;;;;;;5009910;28;20107;-72
2022/10/19 03:46:18;;;;;;;10.80;8.25;;;19.00;96.70;;;;;;5028543;28;20041;-73
2022/10/19 03:48:46;;;;;;;14.30;9.57;;;19.10;96.70;;;;;;5026961;28;20041;-73
2022/10/19 03:51:17;;;;;;;14.05;9.50;;;19.10;96.70;;;;;;5022248;28;20052;-72
2022/10/19 03:53:45;;;;;;;12.95;8.60;;;19.00;96.70;;;;;;5009884;28;20045;-73
2022/10/19 03:56:15;;;;;;;10.07;8.15;;;18.90;96.70;;;;;;5008186;28;20056;-73
2022/10/19 03:58:44;;;;;;;10.30;7.63;;;18.90;96.70;;;;;;5029647;28;20050;-74
2022/10/19 04:01:14;;;;;;;9.50;8.43;;;18.80;96.70;;;;;;5022601;28;20540;-73
2022/10/19 04:03:42;;;;;;;9.57;8.35;;;18.90;96.70;;;;;;5025306;28;20060;-73
2022/10/19 04:06:14;;;;;;;9.68;7.57;;;18.90;96.70;;;;;;5024379;28;20041;-73
2022/10/19 04:08:49;;;;;;;9.57;7.93;;;18.90;96.70;;;;;;5032370;28;20080;-73
2022/10/19 04:11:20;;;;;;;9.95;8.13;;;18.90;96.70;;;;;;5027527;28;20091;-72
2022/10/19 04:13:49;;;;;;;8.95;8.05;;;18.80;96.70;;;;;;5024701;28;20045;-73
2022/10/19 04:16:17;;;;;;;9.52;8.18;;;18.80;96.70;;;;;;5025989;28;20049;-72
2022/10/19 04:18:46;;;;;;;8.50;7.20;;;18.80;96.70;;;;;;5008705;28;20064;-73
2022/10/19 04:21:21;;;;;;;11.25;7.72;;;18.80;96.70;;;;;;5029455;28;20092;-73
2022/10/19 04:23:51;;;;;;;13.33;7.77;;;18.90;96.70;;;;;;5030275;28;20048;-73
2022/10/19 04:26:19;;;;;;;9.93;7.55;;;18.80;96.70;;;;;;5010051;28;20495;-73
2022/10/19 04:28:47;;;;;;;9.50;7.55;;;18.80;96.70;;;;;;5012551;28;20041;-73
2022/10/19 04:31:15;;;;;;;12.75;7.65;;;18.80;96.70;;;;;;5013862;28;20553;-72
2022/10/19 04:33:43;;;;;;;8.25;7.40;;;18.80;96.70;;;;;;5027328;28;20499;-73
2022/10/19 04:36:16;;;;;;;10.00;8.73;;;18.90;96.70;;;;;;5006567;28;20049;-73
2022/10/19 04:38:44;;;;;;;9.38;7.90;;;18.80;96.70;;;;;;5024594;28;20064;-73
2022/10/19 04:41:17;;;;;;;9.57;7.93;;;18.80;96.70;;;;;;5026906;28;20136;-73
2022/10/19 04:43:46;;;;;;;9.20;7.72;;;18.80;96.70;;;;;;5008543;28;20064;-73
2022/10/19 04:46:16;;;;;;;10.55;9.07;;;18.90;96.70;;;;;;5024732;28;20499;-73
2022/10/19 04:48:46;;;;;;;9.68;7.85;;;18.90;96.70;;;;;;5023338;28;20045;-73
2022/10/19 04:51:15;;;;;;;9.23;7.82;;;18.90;96.70;;;;;;5026813;28;20048;-73
2022/10/19 04:53:44;;;;;;;10.23;8.65;;;18.80;96.70;;;;;;5027384;28;20083;-73
2022/10/19 04:56:15;;;;;;;10.90;9.02;;;18.80;96.70;;;;;;5020059;28;20124;-73
2022/10/19 04:58:44;;;;;;;10.00;8.25;;;18.90;96.70;;;;;;5021516;28;20528;-73
2022/10/19 05:01:16;;;;;;;9.98;7.88;;;18.90;96.70;;;;;;5011681;28;20406;-73
2022/10/19 05:03:46;;;;;;;9.30;8.18;;;18.80;96.70;;;;;;5023239;28;20049;-73
2022/10/19 05:06:15;;;;;;;9.52;7.63;;;18.90;96.70;;;;;;5022056;28;20049;-73
2022/10/19 05:08:43;;;;;;;11.68;8.48;;;18.80;96.70;;;;;;5025441;28;20033;-73
2022/10/19 05:11:14;;;;;;;9.38;8.35;;;18.90;96.70;;;;;;5005640;28;20057;-73
2022/10/19 05:13:43;;;;;;;12.65;8.02;;;18.80;96.70;;;;;;5022996;28;20148;-73
2022/10/19 05:16:13;;;;;;;11.90;8.65;;;18.90;96.70;;;;;;5011530;28;20153;-73
2022/10/19 05:18:45;;;;;;;12.13;8.55;;;18.90;96.70;;;;;;5012540;28;20099;-73
2022/10/19 05:21:14;;;;;;;11.65;8.73;;;18.90;96.70;;;;;;5030338;28;20049;-73
2022/10/19 05:23:42;;;;;;;13.18;10.02;;;18.90;96.70;;;;;;5023167;28;20041;-73
2022/10/19 05:26:13;;;;;;;16.88;10.88;;;18.90;96.70;;;;;;5023110;28;20136;-73
2022/10/19 05:28:46;;;;;;;15.38;10.95;;;18.80;96.70;;;;;;5029099;28;20108;-73
2022/10/19 05:31:16;;;;;;;15.02;10.10;;;18.80;96.70;;;;;;5024540;28;20041;-73
2022/10/19 05:33:44;;;;;;;15.68;11.25;;;18.80;96.70;;;;;;5034832;28;20048;-73
2022/10/19 05:36:15;;;;;;;12.38;9.73;;;18.80;96.70;;;;;;5012525;28;20141;-73
2022/10/19 05:38:45;;;;;;;16.80;11.15;;;18.90;96.70;;;;;;5034642;28;20517;-73
2022/10/19 05:41:13;;;;;;;18.73;12.40;;;18.90;96.70;;;;;;4998150;28;20048;-72
2022/10/19 05:43:44;;;;;;;20.95;12.00;;;18.90;96.70;;;;;;5031849;28;20065;-73
2022/10/19 05:46:16;;;;;;;19.05;11.52;;;18.90;96.70;;;;;;5027523;28;20088;-73
2022/10/19 05:48:45;;;;;;;22.00;12.05;;;19.00;96.70;;;;;;5008500;28;20053;-74
2022/10/19 05:51:15;;;;;;;20.73;13.15;;;19.00;96.70;;;;;;5026281;28;20406;-73
2022/10/19 05:53:43;;;;;;;22.20;12.63;;;19.00;96.70;;;;;;5021644;28;20045;-74
2022/10/19 05:56:14;;;;;;;20.88;13.27;;;19.00;96.70;;;;;;5008788;28;20056;-74
2022/10/19 05:58:45;;;;;;;23.60;13.70;;;19.00;96.70;;;;;;5025430;28;20084;-74
2022/10/19 06:01:15;;;;;;;25.55;15.20;;;18.90;96.70;;;;;;5027246;28;20072;-74
2022/10/19 06:03:43;;;;;;;30.48;14.52;;;18.90;96.70;;;;;;5037430;28;20094;-73
2022/10/19 06:06:11;;;;;;;25.15;14.55;;;18.90;96.70;;;;;;5022438;28;20120;-75
2022/10/19 06:08:40;;;;;;;25.83;14.23;;;18.80;96.70;;;;;;5027923;28;20125;-75
2022/10/19 06:11:10;;;;;;;24.00;14.30;;;18.90;96.70;;;;;;5027854;28;20037;-74
2022/10/19 06:13:39;;;;;;;23.00;14.15;;;18.90;96.70;;;;;;5006421;28;20055;-74
2022/10/19 06:16:11;;;;;;;26.42;15.13;;;18.90;96.70;;;;;;5023707;28;20108;-74
2022/10/19 06:18:40;;;;;;;24.23;14.82;;;19.00;96.70;;;;;;5021645;28;20056;-74
2022/10/19 06:21:11;;;;;;;26.48;15.05;;;18.90;96.70;;;;;;5008087;28;20049;-74
2022/10/19 06:23:39;;;;;;;31.90;15.35;;;19.00;96.70;;;;;;5030871;28;20442;-74
2022/10/19 06:26:13;;;;;;;28.48;15.48;;;18.90;96.70;;;;;;5013436;28;20049;-73
2022/10/19 06:28:43;;;;;;;29.25;16.00;;;18.90;96.70;;;;;;4994751;28;20049;-73
2022/10/19 06:31:13;;;;;;;26.23;15.38;;;18.90;96.70;;;;;;5022835;28;20049;-73
2022/10/19 06:33:44;;;;;;;31.88;16.15;;;18.90;96.70;;;;;;5017728;28;20612;-73
2022/10/19 06:36:18;;;;;;;26.95;15.63;;;18.90;96.70;;;;;;5035474;28;20509;-74
2022/10/19 06:38:47;;;;;;;30.13;16.38;;;18.90;96.70;;;;;;5032321;28;20434;-74
2022/10/19 06:41:15;;;;;;;29.77;16.67;;;19.00;96.70;;;;;;5031769;28;20525;-73
2022/10/19 06:43:47;;;;;;;26.45;14.93;;;18.90;96.70;;;;;;5019809;28;20916;-73
2022/10/19 06:46:19;;;;;;;28.98;15.93;;;19.00;96.70;;;;;;5017174;28;20055;-73
2022/10/19 06:48:52;;;;;;;29.98;15.60;;;19.00;96.70;;;;;;4992649;28;20049;-74
2022/10/19 06:51:21;;;;;;;27.10;15.30;;;19.00;96.70;;;;;;5016825;28;20072;-73
2022/10/19 06:53:49;;;;;;;27.25;15.48;;;19.00;96.70;;;;;;4992920;28;20052;-74
2022/10/19 06:56:25;;;;;;;29.30;16.38;;;18.90;96.70;;;;;;5016000;28;20137;-73
2022/10/19 06:58:54;;;;;;;25.88;16.10;;;19.00;96.70;;;;;;4994946;28;20076;-73
2022/10/19 07:01:23;;;;;;;27.17;16.55;;;19.00;96.70;;;;;;5014927;28;20120;-73
2022/10/19 07:03:52;;;;;;;26.92;15.82;;;19.00;96.70;;;;;;4997102;28;20488;-73
2022/10/19 07:06:21;;;;;;;25.35;15.27;;;19.00;96.70;;;;;;5012576;28;20056;-73
2022/10/19 07:08:50;;;;;;;24.20;15.25;;;19.10;96.70;;;;;;4997556;28;20049;-73
2022/10/19 07:11:21;;;;;;;26.45;15.48;;;19.10;96.70;;;;;;5018145;28;20129;-73
2022/10/19 07:13:51;;;;;;;24.23;15.65;;;19.10;96.70;;;;;;5005587;28;20644;-73
2022/10/19 07:16:20;;;;;;;22.27;14.32;;;19.10;96.70;;;;;;5016605;28;20517;-73
2022/10/19 07:18:51;;;;;;;22.27;14.25;;;19.10;96.70;;;;;;5010508;28;20042;-74
2022/10/19 07:21:22;;;;;;;24.65;15.05;;;19.10;96.70;;;;;;5006164;28;20046;-73
2022/10/19 07:23:50;;;;;;;22.08;15.00;;;19.30;96.70;;;;;;5016303;28;20049;-73
2022/10/19 07:26:22;;;;;;;22.40;14.32;;;19.40;96.70;;;;;;5013401;28;20534;-72
2022/10/19 07:28:50;;;;;;;25.20;14.77;;;19.40;96.70;;;;;;5007943;28;20518;-73
2022/10/19 07:31:20;;;;;;;25.52;15.68;;;19.40;96.70;;;;;;4997767;28;20055;-73
2022/10/19 07:33:53;;;;;;;23.08;15.27;;;19.40;96.70;;;;;;5016818;28;20479;-74
2022/10/19 07:36:22;;;;;;;24.67;13.50;;;19.30;96.70;;;;;;5016363;28;21751;-73
2022/10/19 07:38:51;;;;;;;22.73;14.52;;;19.30;96.70;;;;;;5014210;28;20062;-73
2022/10/19 07:41:21;;;;;;;23.48;14.02;;;19.40;96.70;;;;;;4994135;28;20042;-73
2022/10/19 07:43:51;;;;;;;25.58;16.33;;;19.40;96.70;;;;;;5017648;28;20415;-73
2022/10/19 07:46:21;;;;;;;24.63;14.80;;;19.40;96.70;;;;;;5013779;28;20513;-72
2022/10/19 07:48:49;;;;;;;24.60;15.43;;;19.40;96.70;;;;;;5030778;28;20415;-73
2022/10/19 07:51:19;;;;;;;23.50;15.27;;;19.50;96.70;;;;;;5025101;28;20037;-73
2022/10/19 07:53:47;;;;;;;25.27;15.70;;;19.50;96.70;;;;;;5022435;28;20111;-74
2022/10/19 07:56:17;;;;;;;23.73;15.90;;;19.50;96.70;;;;;;5004030;28;20407;-74
2022/10/19 07:58:46;;;;;;;24.85;15.30;;;19.60;96.70;;;;;;5030349;28;20049;-74
2022/10/19 08:01:17;;;;;;;25.73;16.17;;;19.60;96.70;;;;;;5023995;28;20107;-73
2022/10/19 08:03:46;;;;;;;20.85;14.98;;;19.70;96.70;;;;;;4997610;28;20072;-73
2022/10/19 08:06:37;;;;;;;19.65;15.45;;;19.70;96.70;;;;;;5021312;28;20041;-73
2022/10/19 08:09:05;;;;;;;23.48;16.08;;;19.70;96.70;;;;;;5004924;28;20049;-73
2022/10/19 08:11:35;;;;;;;24.50;16.17;;;19.70;96.70;;;;;;5024594;28;20037;-73
2022/10/19 08:14:03;;;;;;;21.20;15.27;;;19.70;96.70;;;;;;5008336;28;20406;-72
2022/10/19 08:16:43;;;;;;;23.67;15.63;;;19.80;96.70;;;;;;5110506;27;20397;-75
2022/10/19 08:19:13;;;;;;;22.80;16.25;;;19.80;96.70;;;;;;5101153;28;20519;-74
2022/10/19 08:21:43;;;;;;;22.00;15.95;;;19.80;96.70;;;;;;5100186;28;20102;-74
2022/10/19 08:24:13;;;;;;;19.55;14.48;;;19.80;96.70;;;;;;5102879;28;20044;-74
2022/10/19 08:26:42;;;;;;;18.90;14.40;;;19.80;96.70;;;;;;5097633;28;20051;-75
2022/10/19 08:29:13;;;;;;;21.77;14.13;;;19.90;96.70;;;;;;5090813;28;20501;-74
2022/10/19 08:31:44;;;;;;;17.75;14.82;;;20.00;96.70;;;;;;5101179;28;20050;-75
2022/10/19 08:34:13;;;;;;;19.35;15.30;;;20.00;96.70;;;;;;5097794;28;20071;-74
2022/10/19 08:36:42;;;;;;;19.80;14.70;;;20.10;96.70;;;;;;5100118;28;20051;-74
2022/10/19 08:39:11;;;;;;;17.58;14.75;;;20.10;96.70;;;;;;5095868;28;20114;-74
2022/10/19 08:41:55;;;;;;;15.30;13.43;;;20.10;96.70;;;;;;5098273;28;20102;-74
2022/10/19 08:44:41;;;;;;;19.73;14.88;;;20.20;96.70;;;;;;5098883;28;20051;-75
2022/10/19 08:47:18;;;;;;;22.77;15.07;;;20.30;96.70;;;;;;5084918;28;20076;-75
2022/10/19 08:49:51;;;;;;;18.08;14.10;;;20.30;96.70;;;;;;5101705;28;20039;-75
2022/10/19 08:52:23;;;;;;;16.30;13.82;;;20.40;96.70;;;;;;5096936;28;20044;-75
2022/10/19 08:54:54;;;;;;;17.55;13.55;;;20.50;96.70;;;;;;5092887;28;20052;-72
2022/10/19 08:57:36;;;;;;;16.52;14.32;;;20.50;96.70;;;;;;5098243;28;20055;-72
2022/10/19 09:00:11;;;;;;;18.90;15.30;;;20.50;96.70;;;;;;5097292;28;20539;-72
2022/10/19 09:03:11;;;;;;;19.60;16.05;;;20.60;96.70;;;;;;5098999;28;20047;-73
2022/10/19 09:05:44;;;;;;;20.27;15.25;;;20.60;96.70;;;;;;5099095;28;20464;-73
2022/10/19 09:08:13;;;;;;;19.67;15.38;;;20.70;96.70;;;;;;5096546;27;20674;-74
2022/10/19 09:10:48;;;;;;;21.25;16.33;;;20.80;96.70;;;;;;5100850;28;20052;-73
2022/10/19 09:13:28;;;;;;;21.33;16.80;;;20.80;96.70;;;;;;5097285;28;20477;-73
2022/10/19 09:16:16;;;;;;;22.60;17.43;;;20.80;96.70;;;;;;5084717;28;20129;-73
2022/10/19 09:18:46;;;;;;;18.98;16.40;;;20.80;96.70;;;;;;5094332;28;20298;-73
2022/10/19 09:21:18;;;;;;;20.10;16.45;;;21.00;96.70;;;;;;5105023;28;20759;-75
2022/10/19 09:23:54;;;;;;;21.38;16.88;;;21.00;96.70;;;;;;5098017;28;20588;-75
2022/10/19 09:26:26;;;;;;;19.92;16.80;;;21.10;96.70;;;;;;5093942;28;20047;-75
2022/10/19 09:29:00;;;;;;;21.17;16.88;;;21.10;96.70;;;;;;5074604;28;20055;-75
2022/10/19 09:31:32;;;;;;;20.23;17.08;;;21.10;96.70;;;;;;5085049;28;20056;-75
2022/10/19 09:34:14;;;;;;;23.52;18.20;;;21.10;96.70;;;;;;5085162;28;20428;-74
2022/10/19 09:36:45;;;;;;;20.95;18.08;;;21.10;96.70;;;;;;5086858;28;20072;-74
2022/10/19 09:39:18;;;;;;;22.70;17.48;;;21.10;96.70;;;;;;5078992;28;20128;-72
2022/10/19 09:41:49;;;;;;;18.45;16.27;;;21.10;96.70;;;;;;5075351;28;20642;-72
2022/10/19 09:44:17;;;;;;;21.15;16.20;;;21.20;96.70;;;;;;5083642;28;20036;-73
2022/10/19 09:46:51;;;;;;;21.10;17.65;;;21.20;96.70;;;;;;5079376;28;20059;-74
2022/10/19 09:49:38;;;;;;;22.40;19.02;;;21.20;96.70;;;;;;5083044;28;20490;-72
2022/10/19 09:52:23;;;;;;;20.70;16.70;;;21.10;96.70;;;;;;5076991;28;20554;-72
2022/10/19 09:55:00;;;;;;;23.23;18.08;;;21.20;96.70;;;;;;5086941;28;20087;-73
2022/10/19 09:57:27;;;;;;;;;;;21.30;96.70;;;;;;5080443;28;20048;-72
2022/10/19 09:59:55;;;;;;;18.80;16.75;;;21.30;96.70;;;;;;5086264;28;19928;-72
2022/10/19 10:02:30;;;;;;;20.10;17.85;;;21.40;96.70;;;;;;5086267;28;20043;-73
2022/10/19 10:05:08;;;;;;;19.60;17.50;;;21.70;96.70;;;;;;5076057;28;20382;-72
2022/10/19 10:07:38;;;;;;;23.42;18.52;;;21.80;96.70;;;;;;5080693;28;20043;-73
2022/10/19 10:10:18;;;;;;;22.77;17.88;;;21.90;96.70;;;;;;5078919;28;20049;-72
2022/10/19 10:12:47;;;;;;;19.55;16.90;;;22.10;96.70;;;;;;5088520;28;20156;-72
2022/10/19 10:15:20;;;;;;;24.38;18.88;;;22.30;96.70;;;;;;5073890;28;20590;-73
2022/10/19 10:17:49;;;;;;;21.88;18.08;;;22.10;96.70;;;;;;5079360;28;20060;-72
2022/10/19 10:20:26;;;;;;;21.90;18.35;;;22.00;96.70;;;;;;5072831;28;20135;-72
2022/10/19 10:22:56;;;;;;;;;;;21.90;96.70;;;;;;5088418;28;20093;-72
2022/10/19 10:25:27;;;;;;;20.27;18.00;;;21.80;96.70;;;;;;5086876;28;19928;-72
2022/10/19 10:27:58;;;;;;;20.08;17.63;;;21.80;96.70;;;;;;5085980;28;20044;-72
2022/10/19 10:30:31;;;;;;;18.95;16.75;;;21.90;96.70;;;;;;5076516;28;20511;-73
2022/10/19 10:33:00;;;;;;;20.63;18.20;;;22.10;96.70;;;;;;5083144;28;20043;-73
2022/10/19 10:35:52;;;;;;;19.55;16.73;;;22.10;96.70;;;;;;5078964;28;20143;-73
2022/10/19 10:38:25;;;;;;;19.70;17.27;;;22.10;96.70;;;;;;5072660;28;20048;-74
2022/10/19 10:40:58;;;;;;;20.55;17.10;;;22.30;96.70;;;;;;5086206;28;20498;-73
2022/10/19 10:43:30;;;;;;;18.75;16.73;;;22.30;96.70;;;;;;5077318;28;20044;-73
2022/10/19 10:46:03;;;;;;;19.80;16.80;;;22.40;96.70;;;;;;5085863;28;20056;-74
2022/10/19 10:48:37;;;;;;;19.23;16.73;;;22.60;96.70;;;;;;5088056;28;20163;-75
2022/10/19 10:51:19;;;;;;;19.70;17.65;;;22.60;96.70;;;;;;5089535;28;20138;-74
2022/10/19 10:53:48;;;;;;;20.40;17.20;;;22.50;96.70;;;;;;5090437;27;20040;-73
2022/10/19 10:56:23;;;;;;;20.52;18.33;;;22.60;96.70;;;;;;5079570;28;20044;-71
2022/10/19 10:58:57;;;;;;;20.25;17.52;;;22.50;96.70;;;;;;5084164;27;20047;-73
2022/10/19 11:01:32;;;;;;;20.13;17.20;;;22.60;96.70;;;;;;5076273;28;20045;-74
2022/10/19 11:04:06;;;;;;;18.00;16.10;;;22.80;96.70;;;;;;5080427;28;20040;-73
2022/10/19 11:06:43;;;;;;;19.40;16.88;;;22.90;96.70;;;;;;5084636;28;20442;-72
2022/10/19 11:09:20;;;;;;;19.65;15.82;;;22.80;96.70;;;;;;5078988;28;20408;-71
2022/10/19 11:11:54;;;;;;;17.80;15.88;;;22.90;96.70;;;;;;5085704;28;20040;-71
2022/10/19 11:14:32;;;;;;;21.60;15.95;;;23.00;96.70;;;;;;5078436;28;20073;-73
2022/10/19 11:17:05;;;;;;;16.88;15.18;;;23.00;96.70;;;;;;5079923;28;20133;-72
2022/10/19 11:19:36;;;;;;;18.40;15.65;;;23.00;96.70;;;;;;5083597;28;20043;-72
2022/10/19 11:22:18;;;;;;;18.10;15.52;;;23.10;96.70;;;;;;5083075;28;20047;-71
2022/10/19 11:25:03;;;;;;;16.85;15.10;;;23.10;96.70;;;;;;5084796;28;20042;-71
2022/10/19 11:27:42;;;;;;;15.77;14.07;;;23.30;96.70;;;;;;5079712;28;20086;-71
2022/10/19 11:30:13;;;;;;;19.85;15.27;;;23.40;96.70;;;;;;5084228;28;20071;-71
2022/10/19 11:32:53;;;;;;;17.30;14.73;;;23.40;96.70;;;;;;5081989;28;20513;-71
2022/10/19 11:35:40;;;;;;;16.73;14.02;;;23.50;96.70;;;;;;5062049;28;20047;-71
2022/10/19 11:38:23;;;;;;;17.27;14.02;;;23.60;96.70;;;;;;5077160;28;20058;-74
2022/10/19 11:41:12;;;;;;;15.02;13.43;;;23.80;96.70;;;;;;5082276;28;20050;-74
2022/10/19 11:43:57;;;;;;;15.80;13.77;;;24.00;96.70;;;;;;5067014;28;20044;-74
2022/10/19 11:46:31;;;;;;;15.85;14.15;;;24.10;96.70;;;;;;5078171;28;20051;-74
2022/10/19 11:49:13;;;;;;;15.35;13.35;;;24.30;96.70;;;;;;5077697;28;20089;-74
2022/10/19 11:51:50;;;;;;;14.90;13.30;;;24.40;96.70;;;;;;5075137;28;20574;-74
2022/10/19 11:54:34;;;;;;;15.32;12.73;;;24.40;96.70;;;;;;5075577;28;20055;-75
2022/10/19 11:57:08;;;;;;;13.63;12.15;;;24.40;96.70;;;;;;5081104;28;20051;-74
2022/10/19 11:59:56;;;;;;;14.07;12.40;;;24.50;96.70;;;;;;5081183;28;20055;-75
2022/10/19 12:03:14;;;;;;;14.57;13.00;;;24.60;96.70;;;;;;5085668;28;20051;-74
2022/10/19 12:06:01;;;;;;;17.58;14.98;;;24.90;96.70;;;;;;5083644;28;20038;-73
2022/10/19 12:08:45;;;;;;;16.52;14.00;;;24.90;96.70;;;;;;5090540;28;20044;-73
2022/10/19 12:11:26;;;;;;;13.32;11.55;;;24.70;96.70;;;;;;5080170;28;20050;-73
2022/10/19 12:13:58;;;;;;;14.13;11.40;;;24.80;96.70;;;;;;5074692;28;20047;-73
2022/10/19 12:16:34;;;;;;;13.65;12.25;;;25.00;96.70;;;;;;5081685;28;20082;-74
2022/10/19 12:19:05;;;;;;;13.77;12.38;;;25.10;96.70;;;;;;5072042;28;20532;-74
2022/10/19 12:21:37;;;;;;;12.70;10.93;;;25.10;96.70;;;;;;5063758;28;20568;-74
2022/10/19 12:24:13;;;;;;;14.35;12.90;;;25.20;96.70;;;;;;5080057;28;20054;-75
2022/10/19 12:26:45;;;;;;;11.73;10.57;;;25.40;96.70;;;;;;5082814;28;20051;-76
2022/10/19 12:29:18;;;;;;;15.27;11.57;;;25.30;96.70;;;;;;5076944;28;20302;-74
2022/10/19 12:31:47;;;;;;;14.27;11.05;;;25.40;96.70;;;;;;5088560;28;20044;-75
2022/10/19 12:34:28;;;;;;;12.20;11.00;;;25.60;96.70;;;;;;5082624;28;20035;-74
2022/10/19 12:37:01;;;;;;;13.30;11.93;;;25.80;96.70;;;;;;5076624;28;20056;-74
2022/10/19 12:39:38;;;;;;;14.02;11.60;;;25.90;96.70;;;;;;5074643;28;20067;-74
2022/10/19 12:42:17;;;;;;;12.70;10.73;;;25.90;96.70;;;;;;5066256;28;20059;-75
2022/10/19 12:45:20;;;;;;;14.18;11.25;;;25.90;96.70;;;;;;5079862;28;20124;-74
2022/10/19 12:48:24;;;;;;;12.27;10.48;;;25.80;96.70;;;;;;5076384;28;20429;-73
2022/10/19 12:51:03;;;;;;;12.77;11.55;;;25.90;96.70;;;;;;5079081;28;20055;-74
2022/10/19 12:53:35;;;;;;;11.85;9.52;;;26.00;96.70;;;;;;5082716;28;20333;-73
2022/10/19 12:56:14;;;;;;;13.55;11.35;;;26.10;96.70;;;;;;5078498;28;20059;-76
2022/10/19 12:58:58;;;;;;;16.60;11.43;;;26.20;96.70;;;;;;5080171;28;20407;-75
2022/10/19 13:01:39;;;;;;;11.73;10.52;;;26.10;96.70;;;;;;5080737;28;20520;-74